sensor_id;sensor_type;location;lat;lon;timestamp;temperature;humidity
34279;DHT22;20538;51.528;9.942;2022-11-04T00:01:39;11.50;99.90
34279;DHT22;20538;51.528;9.942;2022-11-04T00:04:05;11.50;99.90
34279;DHT22;20538;51.528;9.942;2022-11-04T00:06:30;11.50;99.90
34279;DHT22;20538;51.528;9.942;2022-11-04T00:08:58;11.60;99.90
34279;DHT22;20538;51.528;9.942;2022-11-04T00:11:25;11.60;99.90
34279;DHT22;20538;51.528;9.942;2022-11-04T00:14:10;11.60;99.90
34279;DHT22;20538;51.528;9.942;2022-11-04T00:16:36;11.60;99.90
34279;DHT22;20538;51.528;9.942;2022-11-04T00:19:20;11.70;99.90
34279;DHT22;20538;51.528;9.942;2022-11-04T00:21:46;11.70;99.90
34279;DHT22;20538;51.528;9.942;2022-11-04T00:24:30;11.70;99.90
34279;DHT22;20538;51.528;9.942;2022-11-04T00:27:16;11.70;99.90
34279;DHT22;20538;51.528;9.942;2022-11-04T00:30:00;11.70;99.90
34279;DHT22;20538;51.528;9.942;2022-11-04T00:32:26;11.70;99.90
34279;DHT22;20538;51.528;9.942;2022-11-04T00:35:11;11.70;99.90
34279;DHT22;20538;51.528;9.942;2022-11-04T00:37:39;11.70;99.90
34279;DHT22;20538;51.528;9.942;2022-11-04T00:40:06;11.70;99.90
34279;DHT22;20538;51.528;9.942;2022-11-04T00:42:32;11.70;99.90
34279;DHT22;20538;51.528;9.942;2022-11-04T00:44:58;11.70;99.90
34279;DHT22;20538;51.528;9.942;2022-11-04T00:47:24;11.70;99.90
34279;DHT22;20538;51.528;9.942;2022-11-04T00:49:49;11.70;99.90
34279;DHT22;20538;51.528;9.942;2022-11-04T00:52:15;11.70;99.90
34279;DHT22;20538;51.528;9.942;2022-11-04T00:54:40;11.70;99.90
34279;DHT22;20538;51.528;9.942;2022-11-04T00:57:13;11.70;99.90
34279;DHT22;20538;51.528;9.942;2022-11-04T00:59:39;11.60;99.90
34279;DHT22;20538;51.528;9.942;2022-11-04T01:02:06;11.60;99.90
34279;DHT22;20538;51.528;9.942;2022-11-04T01:04:31;11.50;99.90
34279;DHT22;20538;51.528;9.942;2022-11-04T01:06:57;11.50;99.90
34279;DHT22;20538;51.528;9.942;2022-11-04T01:09:23;11.50;99.90
34279;DHT22;20538;51.528;9.942;2022-11-04T01:11:49;11.40;99.90
34279;DHT22;20538;51.528;9.942;2022-11-04T01:14:14;11.40;99.90
34279;DHT22;20538;51.528;9.942;2022-11-04T01:16:40;11.40;99.90
34279;DHT22;20538;51.528;9.942;2022-11-04T01:19:06;11.40;99.90
34279;DHT22;20538;51.528;9.942;2022-11-04T01:21:32;11.40;99.90
34279;DHT22;20538;51.528;9.942;2022-11-04T01:23:58;11.30;99.90
34279;DHT22;20538;51.528;9.942;2022-11-04T01:26:25;11.30;99.90
34279;DHT22;20538;51.528;9.942;2022-11-04T01:28:52;11.30;99.90
34279;DHT22;20538;51.528;9.942;2022-11-04T01:31:26;11.20;99.90
34279;DHT22;20538;51.528;9.942;2022-11-04T01:33:53;11.20;99.90
34279;DHT22;20538;51.528;9.942;2022-11-04T01:36:20;11.20;99.90
34279;DHT22;20538;51.528;9.942;2022-11-04T01:38:46;11.20;99.90
34279;DHT22;20538;51.528;9.942;2022-11-04T01:41:20;11.10;99.90
34279;DHT22;20538;51.528;9.942;2022-11-04T01:43:58;11.10;99.90
34279;DHT22;20538;51.528;9.942;2022-11-04T01:49:00;11.10;99.90
34279;DHT22;20538;51.528;9.942;2022-11-04T01:51:29;11.10;99.90
34279;DHT22;20538;51.528;9.942;2022-11-04T01:53:57;11.10;99.90
34279;DHT22;20538;51.528;9.942;2022-11-04T01:56:25;11.10;99.90
34279;DHT22;20538;51.528;9.942;2022-11-04T01:58:54;11.10;99.90
34279;DHT22;20538;51.528;9.942;2022-11-04T02:01:22;11.10;99.90
34279;DHT22;20538;51.528;9.942;2022-11-04T02:03:49;11.10;99.90
34279;DHT22;20538;51.528;9.942;2022-11-04T02:06:18;11.10;99.90
34279;DHT22;20538;51.528;9.942;2022-11-04T02:08:46;11.10;99.90
34279;DHT22;20538;51.528;9.942;2022-11-04T02:11:11;11.10;99.90
34279;DHT22;20538;51.528;9.942;2022-11-04T02:13:57;11.10;99.90
34279;DHT22;20538;51.528;9.942;2022-11-04T02:16:44;11.20;99.90
34279;DHT22;20538;51.528;9.942;2022-11-04T02:35:11;11.20;99.90
34279;DHT22;20538;51.528;9.942;2022-11-04T02:37:54;11.20;99.90
34279;DHT22;20538;51.528;9.942;2022-11-04T02:43:03;11.20;99.90
34279;DHT22;20538;51.528;9.942;2022-11-04T02:45:41;11.20;99.90
34279;DHT22;20538;51.528;9.942;2022-11-04T02:50:55;11.20;99.90
34279;DHT22;20538;51.528;9.942;2022-11-04T02:53:41;11.20;99.90
34279;DHT22;20538;51.528;9.942;2022-11-04T02:56:10;11.20;99.90
34279;DHT22;20538;51.528;9.942;2022-11-04T02:58:42;11.20;99.90
34279;DHT22;20538;51.528;9.942;2022-11-04T03:01:13;11.20;99.90
34279;DHT22;20538;51.528;9.942;2022-11-04T03:03:47;11.20;99.90
34279;DHT22;20538;51.528;9.942;2022-11-04T03:06:16;11.30;99.90
34279;DHT22;20538;51.528;9.942;2022-11-04T03:08:47;11.30;99.90
34279;DHT22;20538;51.528;9.942;2022-11-04T03:11:17;11.30;99.90
34279;DHT22;20538;51.528;9.942;2022-11-04T03:13:49;11.30;99.90
34279;DHT22;20538;51.528;9.942;2022-11-04T03:16:19;11.30;99.90
34279;DHT22;20538;51.528;9.942;2022-11-04T03:19:01;11.20;99.90
34279;DHT22;20538;51.528;9.942;2022-11-04T03:21:32;11.20;99.90
34279;DHT22;20538;51.528;9.942;2022-11-04T03:24:00;11.20;99.90
34279;DHT22;20538;51.528;9.942;2022-11-04T03:31:53;11.10;99.90
34279;DHT22;20538;51.528;9.942;2022-11-04T03:34:23;11.10;99.90
34279;DHT22;20538;51.528;9.942;2022-11-04T03:36:48;11.00;99.90
34279;DHT22;20538;51.528;9.942;2022-11-04T03:39:14;11.00;99.90
34279;DHT22;20538;51.528;9.942;2022-11-04T03:41:48;11.00;99.90
34279;DHT22;20538;51.528;9.942;2022-11-04T03:44:15;11.10;99.90
34279;DHT22;20538;51.528;9.942;2022-11-04T03:46:41;11.10;99.90
34279;DHT22;20538;51.528;9.942;2022-11-04T03:49:07;11.00;99.90
34279;DHT22;20538;51.528;9.942;2022-11-04T03:51:34;11.00;99.90
34279;DHT22;20538;51.528;9.942;2022-11-04T03:53:59;10.90;99.90
34279;DHT22;20538;51.528;9.942;2022-11-04T03:57:16;10.80;99.90
34279;DHT22;20538;51.528;9.942;2022-11-04T03:59:35;10.80;99.90
34279;DHT22;20538;51.528;9.942;2022-11-04T04:02:14;10.70;99.90
34279;DHT22;20538;51.528;9.942;2022-11-04T04:04:57;10.70;99.90
34279;DHT22;20538;51.528;9.942;2022-11-04T04:07:32;10.70;99.90
34279;DHT22;20538;51.528;9.942;2022-11-04T04:10:12;10.60;99.90
34279;DHT22;20538;51.528;9.942;2022-11-04T04:13:01;10.60;99.90
34279;DHT22;20538;51.528;9.942;2022-11-04T04:15:40;10.60;99.90
34279;DHT22;20538;51.528;9.942;2022-11-04T04:18:12;10.60;99.90
34279;DHT22;20538;51.528;9.942;2022-11-04T04:20:38;10.50;99.90
34279;DHT22;20538;51.528;9.942;2022-11-04T04:23:26;10.50;99.90
34279;DHT22;20538;51.528;9.942;2022-11-04T04:26:12;10.60;99.90
34279;DHT22;20538;51.528;9.942;2022-11-04T04:28:59;10.70;99.90
34279;DHT22;20538;51.528;9.942;2022-11-04T04:31:28;10.60;99.90
34279;DHT22;20538;51.528;9.942;2022-11-04T04:34:13;10.60;99.90
34279;DHT22;20538;51.528;9.942;2022-11-04T04:37:01;10.60;99.90
34279;DHT22;20538;51.528;9.942;2022-11-04T04:39:33;10.60;99.90
34279;DHT22;20538;51.528;9.942;2022-11-04T04:42:19;10.40;99.90
34279;DHT22;20538;51.528;9.942;2022-11-04T04:45:04;10.20;99.90
34279;DHT22;20538;51.528;9.942;2022-11-04T04:47:42;10.10;99.90
34279;DHT22;20538;51.528;9.942;2022-11-04T04:50:09;10.00;99.90
34279;DHT22;20538;51.528;9.942;2022-11-04T04:52:38;9.90;99.90
34279;DHT22;20538;51.528;9.942;2022-11-04T04:55:05;9.80;99.90
34279;DHT22;20538;51.528;9.942;2022-11-04T04:57:30;9.70;99.90
34279;DHT22;20538;51.528;9.942;2022-11-04T04:59:56;9.70;99.90
34279;DHT22;20538;51.528;9.942;2022-11-04T05:02:22;9.60;99.90
34279;DHT22;20538;51.528;9.942;2022-11-04T05:04:47;9.50;99.90
34279;DHT22;20538;51.528;9.942;2022-11-04T05:07:13;9.60;99.90
34279;DHT22;20538;51.528;9.942;2022-11-04T05:09:39;9.50;99.90
34279;DHT22;20538;51.528;9.942;2022-11-04T05:12:04;9.50;99.90
34279;DHT22;20538;51.528;9.942;2022-11-04T05:14:30;9.50;99.90
34279;DHT22;20538;51.528;9.942;2022-11-04T05:16:56;9.50;99.90
34279;DHT22;20538;51.528;9.942;2022-11-04T05:19:22;9.40;99.90
34279;DHT22;20538;51.528;9.942;2022-11-04T05:21:47;9.40;99.90
34279;DHT22;20538;51.528;9.942;2022-11-04T05:24:13;9.30;99.90
34279;DHT22;20538;51.528;9.942;2022-11-04T05:26:39;9.30;99.90
34279;DHT22;20538;51.528;9.942;2022-11-04T05:29:05;9.30;99.90
34279;DHT22;20538;51.528;9.942;2022-11-04T05:31:30;9.20;99.90
34279;DHT22;20538;51.528;9.942;2022-11-04T05:33:56;9.30;99.90
34279;DHT22;20538;51.528;9.942;2022-11-04T05:36:24;9.30;99.90
34279;DHT22;20538;51.528;9.942;2022-11-04T05:38:51;9.30;99.90
34279;DHT22;20538;51.528;9.942;2022-11-04T05:41:17;9.40;99.90
34279;DHT22;20538;51.528;9.942;2022-11-04T05:43:57;9.40;99.90
34279;DHT22;20538;51.528;9.942;2022-11-04T05:46:23;9.40;99.90
34279;DHT22;20538;51.528;9.942;2022-11-04T05:48:49;9.40;99.90
34279;DHT22;20538;51.528;9.942;2022-11-04T05:51:17;9.40;99.90
34279;DHT22;20538;51.528;9.942;2022-11-04T05:53:43;9.40;99.90
34279;DHT22;20538;51.528;9.942;2022-11-04T05:56:08;9.30;99.90
34279;DHT22;20538;51.528;9.942;2022-11-04T05:58:34;9.40;99.90
34279;DHT22;20538;51.528;9.942;2022-11-04T06:01:22;9.40;99.90
34279;DHT22;20538;51.528;9.942;2022-11-04T06:03:52;9.30;99.90
34279;DHT22;20538;51.528;9.942;2022-11-04T06:06:18;9.30;99.90
34279;DHT22;20538;51.528;9.942;2022-11-04T06:08:44;9.30;99.90
34279;DHT22;20538;51.528;9.942;2022-11-04T06:11:10;9.30;99.90
34279;DHT22;20538;51.528;9.942;2022-11-04T06:13:36;9.30;99.90
34279;DHT22;20538;51.528;9.942;2022-11-04T06:16:01;9.30;99.90
34279;DHT22;20538;51.528;9.942;2022-11-04T06:18:27;9.30;99.90
34279;DHT22;20538;51.528;9.942;2022-11-04T06:23:38;9.20;99.90
34279;DHT22;20538;51.528;9.942;2022-11-04T06:26:04;9.20;99.90
34279;DHT22;20538;51.528;9.942;2022-11-04T06:28:30;9.20;99.90
34279;DHT22;20538;51.528;9.942;2022-11-04T06:30:57;9.20;99.90
34279;DHT22;20538;51.528;9.942;2022-11-04T06:33:23;9.30;99.90
34279;DHT22;20538;51.528;9.942;2022-11-04T06:35:48;9.30;99.90
34279;DHT22;20538;51.528;9.942;2022-11-04T06:38:14;9.20;99.90
34279;DHT22;20538;51.528;9.942;2022-11-04T06:40:40;9.30;99.90
34279;DHT22;20538;51.528;9.942;2022-11-04T06:43:05;9.30;99.90
34279;DHT22;20538;51.528;9.942;2022-11-04T06:45:31;9.30;99.90
34279;DHT22;20538;51.528;9.942;2022-11-04T06:47:57;9.40;99.90
34279;DHT22;20538;51.528;9.942;2022-11-04T06:50:22;9.40;99.90
34279;DHT22;20538;51.528;9.942;2022-11-04T06:52:57;9.40;99.90
34279;DHT22;20538;51.528;9.942;2022-11-04T06:55:23;9.50;99.90
34279;DHT22;20538;51.528;9.942;2022-11-04T06:57:49;9.50;99.90
34279;DHT22;20538;51.528;9.942;2022-11-04T07:00:15;9.50;99.90
34279;DHT22;20538;51.528;9.942;2022-11-04T07:02:41;9.40;99.90
34279;DHT22;20538;51.528;9.942;2022-11-04T07:05:07;9.40;99.90
34279;DHT22;20538;51.528;9.942;2022-11-04T07:07:33;9.50;99.90
34279;DHT22;20538;51.528;9.942;2022-11-04T07:09:59;9.50;99.90
34279;DHT22;20538;51.528;9.942;2022-11-04T07:12:24;9.50;99.90
34279;DHT22;20538;51.528;9.942;2022-11-04T07:14:51;9.50;99.90
34279;DHT22;20538;51.528;9.942;2022-11-04T07:17:17;9.50;99.90
34279;DHT22;20538;51.528;9.942;2022-11-04T07:19:42;9.60;99.90
34279;DHT22;20538;51.528;9.942;2022-11-04T07:22:08;9.60;99.90
34279;DHT22;20538;51.528;9.942;2022-11-04T07:24:34;9.70;99.90
34279;DHT22;20538;51.528;9.942;2022-11-04T07:27:00;9.80;99.90
34279;DHT22;20538;51.528;9.942;2022-11-04T07:29:25;9.80;99.90
34279;DHT22;20538;51.528;9.942;2022-11-04T07:31:51;9.90;99.90
34279;DHT22;20538;51.528;9.942;2022-11-04T07:34:17;9.90;99.90
34279;DHT22;20538;51.528;9.942;2022-11-04T07:36:43;10.00;99.90
34279;DHT22;20538;51.528;9.942;2022-11-04T07:39:08;10.00;99.90
34279;DHT22;20538;51.528;9.942;2022-11-04T07:41:34;10.10;99.90
34279;DHT22;20538;51.528;9.942;2022-11-04T07:44:00;10.10;99.90
34279;DHT22;20538;51.528;9.942;2022-11-04T07:46:30;10.20;99.90
34279;DHT22;20538;51.528;9.942;2022-11-04T07:48:57;10.20;99.90
34279;DHT22;20538;51.528;9.942;2022-11-04T07:51:24;10.20;99.90
34279;DHT22;20538;51.528;9.942;2022-11-04T07:53:50;10.20;99.90
34279;DHT22;20538;51.528;9.942;2022-11-04T07:56:16;10.20;99.90
34279;DHT22;20538;51.528;9.942;2022-11-04T07:58:43;10.20;99.90
34279;DHT22;20538;51.528;9.942;2022-11-04T08:01:12;10.20;99.90
34279;DHT22;20538;51.528;9.942;2022-11-04T08:03:38;10.30;99.90
34279;DHT22;20538;51.528;9.942;2022-11-04T08:06:06;10.30;99.90
34279;DHT22;20538;51.528;9.942;2022-11-04T08:08:32;10.30;99.90
34279;DHT22;20538;51.528;9.942;2022-11-04T08:11:01;10.40;99.90
34279;DHT22;20538;51.528;9.942;2022-11-04T08:13:30;10.40;99.90
34279;DHT22;20538;51.528;9.942;2022-11-04T08:15:59;10.40;99.90
34279;DHT22;20538;51.528;9.942;2022-11-04T08:18:26;10.50;99.90
34279;DHT22;20538;51.528;9.942;2022-11-04T08:20:51;10.60;99.90
34279;DHT22;20538;51.528;9.942;2022-11-04T08:23:19;10.60;99.90
34279;DHT22;20538;51.528;9.942;2022-11-04T08:25:45;10.70;99.90
34279;DHT22;20538;51.528;9.942;2022-11-04T08:28:11;10.80;99.90
34279;DHT22;20538;51.528;9.942;2022-11-04T08:30:54;10.90;99.90
34279;DHT22;20538;51.528;9.942;2022-11-04T08:33:20;10.90;99.90
34279;DHT22;20538;51.528;9.942;2022-11-04T08:35:49;11.00;99.90
34279;DHT22;20538;51.528;9.942;2022-11-04T08:38:14;10.90;99.90
34279;DHT22;20538;51.528;9.942;2022-11-04T08:40:40;10.90;99.90
34279;DHT22;20538;51.528;9.942;2022-11-04T08:43:06;10.90;99.90
34279;DHT22;20538;51.528;9.942;2022-11-04T08:45:33;10.90;99.90
34279;DHT22;20538;51.528;9.942;2022-11-04T08:48:01;10.90;99.90
34279;DHT22;20538;51.528;9.942;2022-11-04T08:50:29;10.90;99.90
34279;DHT22;20538;51.528;9.942;2022-11-04T08:52:54;11.00;99.90
34279;DHT22;20538;51.528;9.942;2022-11-04T08:55:20;11.00;99.90
34279;DHT22;20538;51.528;9.942;2022-11-04T08:57:46;11.00;99.90
34279;DHT22;20538;51.528;9.942;2022-11-04T09:00:12;11.10;99.90
34279;DHT22;20538;51.528;9.942;2022-11-04T09:02:37;11.10;99.90
34279;DHT22;20538;51.528;9.942;2022-11-04T09:05:05;11.10;99.90
34279;DHT22;20538;51.528;9.942;2022-11-04T09:07:31;11.10;99.90
34279;DHT22;20538;51.528;9.942;2022-11-04T09:09:57;11.00;99.90
34279;DHT22;20538;51.528;9.942;2022-11-04T09:12:22;11.10;99.90
34279;DHT22;20538;51.528;9.942;2022-11-04T09:14:48;11.10;99.90
34279;DHT22;20538;51.528;9.942;2022-11-04T09:17:14;11.10;99.90
34279;DHT22;20538;51.528;9.942;2022-11-04T09:19:39;11.10;99.90
34279;DHT22;20538;51.528;9.942;2022-11-04T09:22:05;11.20;99.90
34279;DHT22;20538;51.528;9.942;2022-11-04T09:24:30;11.30;99.90
34279;DHT22;20538;51.528;9.942;2022-11-04T09:26:56;11.40;99.90
34279;DHT22;20538;51.528;9.942;2022-11-04T09:29:22;11.50;99.90
34279;DHT22;20538;51.528;9.942;2022-11-04T09:31:47;11.50;99.90
34279;DHT22;20538;51.528;9.942;2022-11-04T09:34:17;11.70;99.90
34279;DHT22;20538;51.528;9.942;2022-11-04T09:37:02;11.70;99.90
34279;DHT22;20538;51.528;9.942;2022-11-04T09:39:28;11.80;99.90
34279;DHT22;20538;51.528;9.942;2022-11-04T09:47:02;11.90;99.90
34279;DHT22;20538;51.528;9.942;2022-11-04T09:49:33;11.80;99.90
34279;DHT22;20538;51.528;9.942;2022-11-04T09:52:03;11.90;99.90
34279;DHT22;20538;51.528;9.942;2022-11-04T09:54:40;11.90;99.90
34279;DHT22;20538;51.528;9.942;2022-11-04T09:57:15;11.90;99.90
34279;DHT22;20538;51.528;9.942;2022-11-04T09:59:40;11.90;99.90
34279;DHT22;20538;51.528;9.942;2022-11-04T10:02:39;12.00;99.90
34279;DHT22;20538;51.528;9.942;2022-11-04T10:08:18;12.00;99.90
34279;DHT22;20538;51.528;9.942;2022-11-04T10:11:00;12.10;99.90
34279;DHT22;20538;51.528;9.942;2022-11-04T10:16:44;12.20;99.90
34279;DHT22;20538;51.528;9.942;2022-11-04T10:19:45;12.20;99.90
34279;DHT22;20538;51.528;9.942;2022-11-04T10:30:01;12.00;99.90
34279;DHT22;20538;51.528;9.942;2022-11-04T10:35:34;11.90;99.90
34279;DHT22;20538;51.528;9.942;2022-11-04T10:40:39;12.10;99.90
34279;DHT22;20538;51.528;9.942;2022-11-04T10:43:09;12.10;99.90
34279;DHT22;20538;51.528;9.942;2022-11-04T10:48:27;12.00;99.90
34279;DHT22;20538;51.528;9.942;2022-11-04T10:50:56;12.00;99.90
34279;DHT22;20538;51.528;9.942;2022-11-04T10:53:26;12.00;99.90
34279;DHT22;20538;51.528;9.942;2022-11-04T10:56:05;12.10;99.90
34279;DHT22;20538;51.528;9.942;2022-11-04T10:58:39;12.30;99.90
34279;DHT22;20538;51.528;9.942;2022-11-04T11:01:32;12.60;99.90
34279;DHT22;20538;51.528;9.942;2022-11-04T11:03:59;12.70;99.90
34279;DHT22;20538;51.528;9.942;2022-11-04T11:06:30;12.80;99.90
34279;DHT22;20538;51.528;9.942;2022-11-04T11:11:47;12.60;99.90
34279;DHT22;20538;51.528;9.942;2022-11-04T11:16:46;12.50;99.90
34279;DHT22;20538;51.528;9.942;2022-11-04T11:19:18;12.60;99.90
34279;DHT22;20538;51.528;9.942;2022-11-04T11:21:47;12.80;99.90
34279;DHT22;20538;51.528;9.942;2022-11-04T11:24:26;12.90;99.90
34279;DHT22;20538;51.528;9.942;2022-11-04T11:27:00;13.00;99.90
34279;DHT22;20538;51.528;9.942;2022-11-04T11:29:33;12.90;99.90
34279;DHT22;20538;51.528;9.942;2022-11-04T11:32:25;12.90;99.90
34279;DHT22;20538;51.528;9.942;2022-11-04T11:34:53;12.80;99.90
34279;DHT22;20538;51.528;9.942;2022-11-04T11:37:21;12.90;99.90
34279;DHT22;20538;51.528;9.942;2022-11-04T11:39:48;12.60;99.90
34279;DHT22;20538;51.528;9.942;2022-11-04T11:42:15;12.80;99.90
34279;DHT22;20538;51.528;9.942;2022-11-04T11:44:52;12.90;99.90
34279;DHT22;20538;51.528;9.942;2022-11-04T11:52:47;13.40;99.90
34279;DHT22;20538;51.528;9.942;2022-11-04T11:55:28;13.10;99.90
34279;DHT22;20538;51.528;9.942;2022-11-04T11:58:21;13.00;99.90
34279;DHT22;20538;51.528;9.942;2022-11-04T12:00:51;13.10;99.90
34279;DHT22;20538;51.528;9.942;2022-11-04T12:20:16;13.20;99.90
34279;DHT22;20538;51.528;9.942;2022-11-04T12:28:36;13.00;99.90
34279;DHT22;20538;51.528;9.942;2022-11-04T12:42:17;12.60;99.90
34279;DHT22;20538;51.528;9.942;2022-11-04T12:47:41;12.60;99.90
34279;DHT22;20538;51.528;9.942;2022-11-04T12:53:05;12.60;99.90
34279;DHT22;20538;51.528;9.942;2022-11-04T13:06:53;12.30;99.90
34279;DHT22;20538;51.528;9.942;2022-11-04T13:09:37;12.30;99.90
34279;DHT22;20538;51.528;9.942;2022-11-04T13:12:20;12.20;99.90
34279;DHT22;20538;51.528;9.942;2022-11-04T13:15:04;12.20;99.90
34279;DHT22;20538;51.528;9.942;2022-11-04T13:17:34;12.10;99.90
34279;DHT22;20538;51.528;9.942;2022-11-04T13:20:19;12.10;99.90
34279;DHT22;20538;51.528;9.942;2022-11-04T13:22:49;12.10;99.90
34279;DHT22;20538;51.528;9.942;2022-11-04T13:25:21;12.10;99.90
34279;DHT22;20538;51.528;9.942;2022-11-04T13:27:51;12.20;99.90
34279;DHT22;20538;51.528;9.942;2022-11-04T13:33:20;12.30;99.90
34279;DHT22;20538;51.528;9.942;2022-11-04T13:36:04;12.30;99.90
34279;DHT22;20538;51.528;9.942;2022-11-04T13:38:38;12.20;99.90
34279;DHT22;20538;51.528;9.942;2022-11-04T13:44:12;12.10;99.90
34279;DHT22;20538;51.528;9.942;2022-11-04T13:46:39;12.20;99.90
34279;DHT22;20538;51.528;9.942;2022-11-04T13:51:40;12.20;99.90
34279;DHT22;20538;51.528;9.942;2022-11-04T13:54:23;12.00;99.90
34279;DHT22;20538;51.528;9.942;2022-11-04T13:56:50;12.00;99.90
34279;DHT22;20538;51.528;9.942;2022-11-04T13:59:29;12.00;99.90
34279;DHT22;20538;51.528;9.942;2022-11-04T14:04:40;12.10;99.90
34279;DHT22;20538;51.528;9.942;2022-11-04T14:07:08;12.10;99.90
34279;DHT22;20538;51.528;9.942;2022-11-04T14:14:36;12.10;99.90
34279;DHT22;20538;51.528;9.942;2022-11-04T14:17:03;12.10;99.90
34279;DHT22;20538;51.528;9.942;2022-11-04T14:22:14;12.20;99.90
34279;DHT22;20538;51.528;9.942;2022-11-04T14:24:40;12.20;99.90
34279;DHT22;20538;51.528;9.942;2022-11-04T14:27:26;12.20;99.90
34279;DHT22;20538;51.528;9.942;2022-11-04T14:29:52;12.30;99.90
34279;DHT22;20538;51.528;9.942;2022-11-04T14:32:32;12.30;99.90
34279;DHT22;20538;51.528;9.942;2022-11-04T14:35:03;12.20;99.90
34279;DHT22;20538;51.528;9.942;2022-11-04T14:37:35;12.20;99.90
34279;DHT22;20538;51.528;9.942;2022-11-04T14:40:06;12.20;99.90
34279;DHT22;20538;51.528;9.942;2022-11-04T14:45:53;12.20;99.90
34279;DHT22;20538;51.528;9.942;2022-11-04T14:48:17;12.20;99.90
34279;DHT22;20538;51.528;9.942;2022-11-04T14:50:46;12.20;99.90
34279;DHT22;20538;51.528;9.942;2022-11-04T14:53:28;12.20;99.90
34279;DHT22;20538;51.528;9.942;2022-11-04T14:56:15;12.10;99.90
34279;DHT22;20538;51.528;9.942;2022-11-04T14:58:57;12.00;99.90
34279;DHT22;20538;51.528;9.942;2022-11-04T15:01:24;11.90;99.90
34279;DHT22;20538;51.528;9.942;2022-11-04T15:03:51;11.90;99.90
34279;DHT22;20538;51.528;9.942;2022-11-04T15:06:28;11.80;99.90
34279;DHT22;20538;51.528;9.942;2022-11-04T15:08:55;11.80;99.90
34279;DHT22;20538;51.528;9.942;2022-11-04T15:11:27;11.70;99.90
34279;DHT22;20538;51.528;9.942;2022-11-04T15:14:21;11.70;99.90
34279;DHT22;20538;51.528;9.942;2022-11-04T15:16:57;11.60;99.90
34279;DHT22;20538;51.528;9.942;2022-11-04T15:19:32;11.50;99.90
34279;DHT22;20538;51.528;9.942;2022-11-04T15:22:03;11.50;99.90
34279;DHT22;20538;51.528;9.942;2022-11-04T15:24:29;11.50;99.90
34279;DHT22;20538;51.528;9.942;2022-11-04T15:27:03;11.40;99.90
34279;DHT22;20538;51.528;9.942;2022-11-04T15:29:30;11.30;99.90
34279;DHT22;20538;51.528;9.942;2022-11-04T15:31:58;11.20;99.90
34279;DHT22;20538;51.528;9.942;2022-11-04T15:34:25;11.20;99.90
34279;DHT22;20538;51.528;9.942;2022-11-04T15:36:58;11.10;99.90
34279;DHT22;20538;51.528;9.942;2022-11-04T15:39:33;11.10;99.90
34279;DHT22;20538;51.528;9.942;2022-11-04T15:42:03;11.00;99.90
34279;DHT22;20538;51.528;9.942;2022-11-04T15:44:50;11.00;99.90
34279;DHT22;20538;51.528;9.942;2022-11-04T15:49:42;10.90;99.90
34279;DHT22;20538;51.528;9.942;2022-11-04T15:52:13;10.80;99.90
34279;DHT22;20538;51.528;9.942;2022-11-04T15:54:43;10.70;99.90
34279;DHT22;20538;51.528;9.942;2022-11-04T15:57:27;10.60;99.90
34279;DHT22;20538;51.528;9.942;2022-11-04T16:07:42;10.30;99.90
34279;DHT22;20538;51.528;9.942;2022-11-04T16:10:34;10.20;99.90
34279;DHT22;20538;51.528;9.942;2022-11-04T16:18:37;10.10;99.90
34279;DHT22;20538;51.528;9.942;2022-11-04T16:21:21;10.00;99.90
34279;DHT22;20538;51.528;9.942;2022-11-04T16:23:53;10.00;99.90
34279;DHT22;20538;51.528;9.942;2022-11-04T16:26:26;9.90;99.90
34279;DHT22;20538;51.528;9.942;2022-11-04T16:28:58;9.80;99.90
34279;DHT22;20538;51.528;9.942;2022-11-04T16:31:26;9.70;99.90
34279;DHT22;20538;51.528;9.942;2022-11-04T16:33:56;9.70;99.90
34279;DHT22;20538;51.528;9.942;2022-11-04T16:36:21;9.70;99.90
34279;DHT22;20538;51.528;9.942;2022-11-04T16:39:00;9.70;99.90
34279;DHT22;20538;51.528;9.942;2022-11-04T16:41:35;9.60;99.90
34279;DHT22;20538;51.528;9.942;2022-11-04T16:44:02;9.50;99.90
34279;DHT22;20538;51.528;9.942;2022-11-04T16:46:28;9.50;99.90
34279;DHT22;20538;51.528;9.942;2022-11-04T16:48:54;9.50;99.90
34279;DHT22;20538;51.528;9.942;2022-11-04T16:51:21;9.40;99.90
34279;DHT22;20538;51.528;9.942;2022-11-04T16:53:49;9.30;99.90
34279;DHT22;20538;51.528;9.942;2022-11-04T16:56:16;9.30;99.90
34279;DHT22;20538;51.528;9.942;2022-11-04T16:58:42;9.20;99.90
34279;DHT22;20538;51.528;9.942;2022-11-04T17:01:10;9.20;99.90
34279;DHT22;20538;51.528;9.942;2022-11-04T17:03:43;9.20;99.90
34279;DHT22;20538;51.528;9.942;2022-11-04T17:06:11;9.10;99.90
34279;DHT22;20538;51.528;9.942;2022-11-04T17:08:37;9.10;99.90
34279;DHT22;20538;51.528;9.942;2022-11-04T17:11:04;9.10;99.90
34279;DHT22;20538;51.528;9.942;2022-11-04T17:13:30;9.10;99.90
34279;DHT22;20538;51.528;9.942;2022-11-04T17:15:56;9.10;99.90
34279;DHT22;20538;51.528;9.942;2022-11-04T17:18:22;9.10;99.90
34279;DHT22;20538;51.528;9.942;2022-11-04T17:20:52;9.10;99.90
34279;DHT22;20538;51.528;9.942;2022-11-04T17:23:19;9.10;99.90
34279;DHT22;20538;51.528;9.942;2022-11-04T17:25:46;9.00;99.90
34279;DHT22;20538;51.528;9.942;2022-11-04T17:28:11;9.00;99.90
34279;DHT22;20538;51.528;9.942;2022-11-04T17:30:39;9.00;99.90
34279;DHT22;20538;51.528;9.942;2022-11-04T17:33:05;9.10;99.90
34279;DHT22;20538;51.528;9.942;2022-11-04T17:35:33;9.10;99.90
34279;DHT22;20538;51.528;9.942;2022-11-04T17:38:01;9.10;99.90
34279;DHT22;20538;51.528;9.942;2022-11-04T17:40:26;9.10;99.90
34279;DHT22;20538;51.528;9.942;2022-11-04T17:42:52;9.00;99.90
34279;DHT22;20538;51.528;9.942;2022-11-04T17:45:47;9.00;99.90
34279;DHT22;20538;51.528;9.942;2022-11-04T17:48:32;9.00;99.90
34279;DHT22;20538;51.528;9.942;2022-11-04T17:50:58;9.00;99.90
34279;DHT22;20538;51.528;9.942;2022-11-04T17:53:24;9.00;99.90
34279;DHT22;20538;51.528;9.942;2022-11-04T17:55:49;9.00;99.90
34279;DHT22;20538;51.528;9.942;2022-11-04T17:58:15;9.00;99.90
34279;DHT22;20538;51.528;9.942;2022-11-04T18:00:41;9.00;99.90
34279;DHT22;20538;51.528;9.942;2022-11-04T18:03:06;8.90;99.90
34279;DHT22;20538;51.528;9.942;2022-11-04T18:05:32;8.90;99.90
34279;DHT22;20538;51.528;9.942;2022-11-04T18:07:58;8.90;99.90
34279;DHT22;20538;51.528;9.942;2022-11-04T18:10:26;8.90;99.90
34279;DHT22;20538;51.528;9.942;2022-11-04T18:12:51;8.90;99.90
34279;DHT22;20538;51.528;9.942;2022-11-04T18:15:17;8.80;99.90
34279;DHT22;20538;51.528;9.942;2022-11-04T18:17:44;8.90;99.90
34279;DHT22;20538;51.528;9.942;2022-11-04T18:20:11;8.90;99.90
34279;DHT22;20538;51.528;9.942;2022-11-04T18:22:39;9.00;99.90
34279;DHT22;20538;51.528;9.942;2022-11-04T18:25:06;8.90;99.90
34279;DHT22;20538;51.528;9.942;2022-11-04T18:27:32;8.90;99.90
34279;DHT22;20538;51.528;9.942;2022-11-04T18:29:57;8.90;99.90
34279;DHT22;20538;51.528;9.942;2022-11-04T18:32:23;9.00;99.90
34279;DHT22;20538;51.528;9.942;2022-11-04T18:34:50;9.00;99.90